Time;durP1;ratioP1;P1;durP2;ratioP2;P2;SDS_P1;SDS_P2;PMS_P1;PMS_P2;Temp;Humidity;BMP_temperature;BMP_pressure;BME280_temperature;BME280_humidity;BME280_pressure;Samples;Min_cycle;Max_cycle;Signal;HPM_P1;HPM_P2
2020/12/27 00:02:06;;;;;;;1.93;1.83;;;;;;;2.68;76.25;99341.28;5103863;28;20881;-65
2020/12/27 00:04:32;;;;;;;4.40;2.20;;;;;;;2.69;76.15;99335.91;5115201;27;20458;-68
2020/12/27 00:07:01;;;;;;;2.53;2.43;;;;;;;2.71;75.64;99330.47;5125567;28;20493;-68
2020/12/27 00:09:27;;;;;;;3.17;2.17;;;;;;;2.68;75.88;99331.56;5128940;27;20437;-69
2020/12/27 00:11:54;;;;;;;3.93;1.93;;;;;;;2.63;76.52;99320.50;5126905;27;20478;-68
2020/12/27 00:14:20;;;;;;;2.30;2.10;;;;;;;2.60;76.57;99296.97;5143212;27;20457;-68
2020/12/27 00:16:47;;;;;;;3.43;2.43;;;;;;;2.55;76.45;99302.63;5145121;27;20484;-68
2020/12/27 00:19:13;;;;;;;6.10;2.23;;;;;;;2.56;76.61;99301.66;5132315;27;20450;-68
2020/12/27 00:21:39;;;;;;;2.77;2.03;;;;;;;2.57;76.31;99281.38;5130615;27;21036;-69
2020/12/27 00:24:05;;;;;;;3.00;1.90;;;;;;;2.60;76.48;99296.97;5133290;27;20438;-68
2020/12/27 00:26:32;;;;;;;2.60;2.33;;;;;;;2.56;76.41;99288.44;5124965;27;20474;-69
2020/12/27 00:28:58;;;;;;;1.93;1.77;;;;;;;2.56;76.33;99280.53;5126594;28;20430;-69
2020/12/27 00:31:24;;;;;;;4.30;2.30;;;;;;;2.52;76.63;99281.72;5124245;28;20489;-68
2020/12/27 00:33:51;;;;;;;4.30;2.83;;;;;;;2.49;76.55;99263.47;5127056;28;20430;-69
2020/12/27 00:36:18;;;;;;;2.30;2.17;;;;;;;2.53;76.21;99258.81;5125895;27;20469;-68
2020/12/27 00:38:45;;;;;;;2.50;2.30;;;;;;;2.49;76.67;99252.94;5147714;27;20500;-69
2020/12/27 00:41:11;;;;;;;3.43;2.50;;;;;;;2.54;76.49;99255.22;5145620;27;20496;-71
2020/12/27 00:43:37;;;;;;;3.53;1.80;;;;;;;2.50;76.43;99249.34;5146714;27;20460;-69
2020/12/27 00:46:03;;;;;;;2.60;2.40;;;;;;;2.50;76.18;99237.94;5144720;27;20468;-68
2020/12/27 00:48:29;;;;;;;2.57;2.37;;;;;;;2.53;75.91;99242.97;5146625;27;20441;-69
2020/12/27 00:50:56;;;;;;;2.20;2.00;;;;;;;2.48;76.34;99230.13;5129052;27;20466;-69
2020/12/27 00:53:22;;;;;;;2.20;2.00;;;;;;;2.48;76.35;99222.22;5126272;28;20523;-69
2020/12/27 00:55:49;;;;;;;3.00;2.50;;;;;;;2.48;76.53;99216.09;5125250;28;20470;-69
2020/12/27 00:58:15;;;;;;;1.93;1.83;;;;;;;2.45;76.77;99211.91;5126300;28;20493;-69
2020/12/27 01:00:41;;;;;;;2.97;2.13;;;;;;;2.43;76.48;99197.97;5123773;27;20504;-69
2020/12/27 01:03:07;;;;;;;3.00;2.30;;;;;;;2.47;76.37;99204.72;5127066;28;20450;-69
2020/12/27 01:05:33;;;;;;;2.43;2.27;;;;;;;2.42;76.66;99191.03;5124675;28;20513;-69
2020/12/27 01:08:00;;;;;;;2.10;2.00;;;;;;;2.42;76.61;99197.13;5125089;28;20962;-68
2020/12/27 01:10:26;;;;;;;2.03;1.83;;;;;;;2.42;76.20;99191.84;5125014;28;20469;-69
2020/12/27 01:12:53;;;;;;;3.10;2.80;;;;;;;2.42;76.42;99180.47;5124392;28;20478;-69
2020/12/27 01:15:19;;;;;;;2.27;2.07;;;;;;;2.45;76.04;99169.69;5124519;27;20457;-69
2020/12/27 01:17:45;;;;;;;2.37;2.17;;;;;;;2.41;76.05;99173.50;5127044;27;20796;-68
2020/12/27 01:20:11;;;;;;;2.40;2.20;;;;;;;2.43;76.00;99142.56;5135253;27;20520;-70
2020/12/27 01:22:37;;;;;;;4.47;2.53;;;;;;;2.38;76.37;99157.94;5126907;27;20449;-69
2020/12/27 01:25:04;;;;;;;2.97;2.10;;;;;;;2.38;76.28;99160.56;5126484;28;20434;-69
2020/12/27 01:27:30;;;;;;;2.17;2.00;;;;;;;2.40;76.07;99166.56;5127233;27;20869;-69
2020/12/27 01:29:56;;;;;;;5.20;2.10;;;;;;;2.40;75.90;99143.66;5126009;28;20422;-69
2020/12/27 01:32:23;;;;;;;1.97;1.87;;;;;;;2.45;75.70;99148.59;5135553;27;20484;-69
2020/12/27 01:34:49;;;;;;;2.20;2.00;;;;;;;2.42;75.87;99122.44;5140213;27;20445;-69
2020/12/27 01:37:15;;;;;;;3.70;2.13;;;;;;;2.38;76.11;99136.84;5128014;27;20474;-69
2020/12/27 01:39:41;;;;;;;3.50;2.10;;;;;;;2.39;76.37;99127.94;5125845;28;20423;-68
2020/12/27 01:42:08;;;;;;;3.10;2.27;;;;;;;2.37;75.92;99135.97;5136096;27;20465;-69
2020/12/27 01:44:34;;;;;;;2.10;1.90;;;;;;;2.41;75.74;99134.81;5146012;27;20449;-69
2020/12/27 01:47:15;;;;;;;2.10;1.93;;;;;;;2.39;75.86;99120.03;5144909;27;20473;-68
2020/12/27 01:49:41;;;;;;;2.60;2.40;;;;;;;2.34;76.20;99112.47;5140838;27;20446;-68
2020/12/27 01:52:07;;;;;;;2.80;1.80;;;;;;;2.36;76.04;99104.44;5125143;28;20474;-69
2020/12/27 01:54:34;;;;;;;2.50;2.00;;;;;;;2.37;76.20;99099.03;5130299;27;20445;-68
2020/12/27 01:57:01;;;;;;;5.70;2.27;;;;;;;2.34;76.56;99093.16;5145249;27;20840;-68
2020/12/27 01:59:30;;;;;;;2.60;1.90;;;;;;;2.36;75.76;99078.91;5131646;27;20435;-69
2020/12/27 02:01:57;;;;;;;2.40;2.20;;;;;;;2.32;75.67;99084.53;5145850;27;20468;-69
2020/12/27 02:04:23;;;;;;;2.10;1.90;;;;;;;2.33;75.86;99067.75;5144184;27;21113;-68
2020/12/27 02:06:50;;;;;;;3.80;1.97;;;;;;;2.26;76.19;99060.31;5138366;27;20985;-68
2020/12/27 02:09:16;;;;;;;2.40;2.20;;;;;;;2.22;76.66;99048.31;5129718;27;20446;-69
2020/12/27 02:11:42;;;;;;;4.40;2.33;;;;;;;2.21;76.44;99032.63;5143998;27;21073;-68
2020/12/27 02:14:09;;;;;;;2.40;2.20;;;;;;;2.20;76.18;99042.31;5144699;27;20433;-69
2020/12/27 02:16:36;;;;;;;2.50;2.17;;;;;;;2.19;76.81;99022.19;5145692;27;20476;-69
2020/12/27 02:19:06;;;;;;;2.60;2.00;;;;;;;2.26;75.45;99002.28;5131089;27;20515;-69
2020/12/27 02:21:32;;;;;;;2.03;1.83;;;;;;;2.25;75.66;99012.94;5124258;28;20915;-69
2020/12/27 02:24:00;;;;;;;1.60;1.50;;;;;;;2.24;75.92;98998.94;5140928;27;20453;-69
2020/12/27 02:26:27;;;;;;;4.33;2.37;;;;;;;2.25;75.61;98992.69;5131198;27;20477;-69
2020/12/27 02:28:54;;;;;;;2.53;2.00;;;;;;;2.21;75.74;98985.97;5146912;27;20418;-68
2020/12/27 02:31:22;;;;;;;2.90;2.00;;;;;;;2.19;76.18;98979.16;5144663;27;20469;-68
2020/12/27 02:33:48;;;;;;;2.03;1.87;;;;;;;2.18;75.90;98972.19;5146591;27;20414;-69
2020/12/27 02:36:14;;;;;;;1.40;1.30;;;;;;;2.23;75.46;98970.88;5125767;27;20470;-68
2020/12/27 02:38:40;;;;;;;1.83;1.63;;;;;;;2.21;75.37;98956.97;5140586;27;20446;-68
2020/12/27 02:41:13;;;;;;;1.90;1.80;;;;;;;2.25;75.51;98942.59;5124303;28;20531;-68
2020/12/27 02:43:39;;;;;;;2.80;1.70;;;;;;;2.21;75.44;98954.34;5144240;27;20465;-68
2020/12/27 02:46:10;;;;;;;1.70;1.60;;;;;;;2.17;75.82;98936.22;5143907;27;20472;-69
2020/12/27 02:48:37;;;;;;;1.80;1.70;;;;;;;2.17;75.55;98918.63;5140712;27;20481;-68
2020/12/27 02:51:03;;;;;;;1.83;1.60;;;;;;;2.19;75.46;98894.78;5127582;27;20478;-69
2020/12/27 02:53:29;;;;;;;2.70;2.00;;;;;;;2.19;75.62;98900.06;5135681;27;20456;-68
2020/12/27 02:55:55;;;;;;;2.37;1.70;;;;;;;2.18;75.49;98893.94;5144739;27;20477;-68
2020/12/27 02:58:22;;;;;;;1.73;1.63;;;;;;;2.21;75.51;98887.59;5145027;27;20460;-69
2020/12/27 03:00:48;;;;;;;1.70;1.60;;;;;;;2.18;75.26;98870.19;5144467;27;20477;-69
2020/12/27 03:03:14;;;;;;;2.00;1.90;;;;;;;2.25;74.99;98863.47;5145661;27;20905;-69
2020/12/27 03:05:41;;;;;;;2.00;1.80;;;;;;;2.17;75.66;98855.34;5130401;27;20473;-70
2020/12/27 03:08:07;;;;;;;3.90;2.40;;;;;;;2.28;74.96;98856.31;5129778;27;20443;-67
2020/12/27 03:10:33;;;;;;;2.20;2.00;;;;;;;2.25;74.93;98858.19;5144111;27;21019;-68
2020/12/27 03:12:59;;;;;;;1.30;1.20;;;;;;;2.30;74.83;98852.56;5144015;27;20502;-68
2020/12/27 03:15:26;;;;;;;3.50;1.70;;;;;;;2.32;74.63;98836.63;5144113;27;20476;-68
2020/12/27 03:17:53;;;;;;;2.20;1.73;;;;;;;2.34;74.45;98829.44;5127384;28;20458;-69
2020/12/27 03:20:19;;;;;;;1.70;1.60;;;;;;;2.32;74.80;98815.53;5133016;28;20552;-68
2020/12/27 03:22:46;;;;;;;2.23;2.00;;;;;;;2.31;75.01;98821.75;5125546;28;20446;-68
2020/12/27 03:25:12;;;;;;;1.90;1.40;;;;;;;2.34;74.74;98810.97;5143700;27;20445;-68
2020/12/27 03:27:38;;;;;;;2.60;1.57;;;;;;;2.38;74.39;98793.94;5145041;28;20450;-68
2020/12/27 03:30:05;;;;;;;1.87;1.33;;;;;;;2.38;74.71;98788.66;5144157;28;20515;-68
2020/12/27 03:32:32;;;;;;;3.13;1.50;;;;;;;2.36;74.74;98766.84;5145101;28;20461;-69
2020/12/27 03:34:59;;;;;;;1.50;1.40;;;;;;;2.36;75.12;98783.53;5127130;28;20446;-68
2020/12/27 03:37:25;;;;;;;1.13;1.07;;;;;;;2.48;74.36;98780.81;5138840;28;20481;-68
2020/12/27 03:39:51;;;;;;;1.60;1.50;;;;;;;2.46;74.24;98775.69;5137894;28;20515;-69
2020/12/27 03:42:18;;;;;;;2.33;1.40;;;;;;;2.49;74.21;98758.78;5122955;28;21185;-68
2020/12/27 03:44:44;;;;;;;1.40;1.30;;;;;;;2.45;74.31;98745.00;5131303;28;20445;-69
2020/12/27 03:47:10;;;;;;;2.50;1.33;;;;;;;2.50;73.88;98736.69;5143972;28;20465;-69
2020/12/27 03:49:37;;;;;;;1.63;1.53;;;;;;;2.47;74.01;98708.78;5140118;28;20478;-69
2020/12/27 03:52:03;;;;;;;3.30;1.40;;;;;;;2.45;74.25;98692.25;5123927;28;20504;-69
2020/12/27 03:54:29;;;;;;;1.57;1.47;;;;;;;2.49;73.85;98674.38;5131894;28;20448;-69
2020/12/27 03:56:55;;;;;;;4.70;1.80;;;;;;;2.50;74.33;98670.75;5143468;28;20468;-68
2020/12/27 03:59:21;;;;;;;1.67;1.57;;;;;;;2.56;73.75;98670.25;5134517;28;20450;-69
2020/12/27 04:01:47;;;;;;;3.03;1.87;;;;;;;2.56;73.85;98667.59;5123500;27;21015;-69
2020/12/27 04:04:14;;;;;;;3.23;1.70;;;;;;;2.52;73.69;98661.75;5133566;28;20460;-69
2020/12/27 04:06:41;;;;;;;2.13;1.67;;;;;;;2.47;73.99;98666.56;5131482;28;21047;-69
2020/12/27 04:09:07;;;;;;;1.57;1.47;;;;;;;2.51;74.09;98659.25;5145526;28;20430;-69
2020/12/27 04:11:33;;;;;;;7.40;1.40;;;;;;;2.48;73.71;98647.13;5142515;28;20468;-69
2020/12/27 04:13:59;;;;;;;1.67;1.57;;;;;;;2.49;73.91;98634.78;5143985;28;20476;-69
2020/12/27 04:16:25;;;;;;;1.80;1.50;;;;;;;2.54;73.15;98632.59;5142084;28;20493;-69
2020/12/27 04:18:52;;;;;;;3.10;1.80;;;;;;;2.57;73.38;98637.59;5145847;28;20482;-70
2020/12/27 04:21:18;;;;;;;1.77;1.43;;;;;;;2.55;73.42;98634.25;5125138;28;20501;-69
2020/12/27 04:23:45;;;;;;;1.87;1.30;;;;;;;2.58;73.39;98640.13;5124873;28;20461;-69
2020/12/27 04:26:14;;;;;;;1.97;1.77;;;;;;;2.62;73.41;98598.47;5124424;28;20482;-69
2020/12/27 04:28:40;;;;;;;4.00;1.43;;;;;;;2.64;72.98;98610.59;5145277;28;20449;-69
2020/12/27 04:31:06;;;;;;;1.70;1.60;;;;;;;2.64;73.26;98599.22;5142913;28;20473;-69
2020/12/27 04:33:32;;;;;;;1.63;1.53;;;;;;;2.70;73.27;98600.47;5145793;28;20429;-69
2020/12/27 04:35:58;;;;;;;1.60;1.50;;;;;;;2.62;73.29;98593.19;5127405;28;20469;-69
2020/12/27 04:38:24;;;;;;;1.50;1.40;;;;;;;2.59;73.20;98596.94;5148188;27;20498;-69
2020/12/27 04:40:51;;;;;;;1.70;1.43;;;;;;;2.66;72.85;98591.13;5146376;27;20488;-69
2020/12/27 04:43:18;;;;;;;1.60;1.50;;;;;;;2.66;73.17;98578.78;5148352;27;20991;-69
2020/12/27 04:45:44;;;;;;;1.57;1.47;;;;;;;2.74;72.53;98567.56;5142454;27;20474;-69
2020/12/27 04:48:10;;;;;;;2.43;1.30;;;;;;;2.75;72.50;98563.97;5128216;28;20458;-69
2020/12/27 04:50:37;;;;;;;1.20;1.10;;;;;;;2.74;72.89;98557.00;5130986;27;20465;-69
2020/12/27 04:53:03;;;;;;;1.40;1.23;;;;;;;2.71;72.71;98552.84;5149232;27;20464;-69
2020/12/27 04:55:29;;;;;;;1.00;1.00;;;;;;;2.74;73.06;98539.41;5134581;27;21190;-69
2020/12/27 04:57:57;;;;;;;1.30;1.20;;;;;;;2.79;72.59;98526.63;5127528;28;20450;-69
2020/12/27 05:00:23;;;;;;;2.10;1.40;;;;;;;2.84;71.88;98499.81;5136836;27;20469;-69
2020/12/27 05:02:50;;;;;;;1.43;1.20;;;;;;;2.93;71.57;98480.53;5148197;27;20487;-69
2020/12/27 05:05:16;;;;;;;1.67;1.20;;;;;;;2.97;71.64;98489.03;5136013;27;20840;-69
2020/12/27 05:07:43;;;;;;;1.37;1.27;;;;;;;2.98;71.96;98475.69;5129929;27;20785;-69
2020/12/27 05:10:10;;;;;;;1.67;1.20;;;;;;;3.02;71.64;98463.03;5146710;27;20456;-69
2020/12/27 05:12:36;;;;;;;1.43;1.27;;;;;;;2.99;72.34;98471.25;5144755;27;20473;-68
2020/12/27 05:15:04;;;;;;;1.47;1.13;;;;;;;3.04;71.68;98457.63;5106839;28;20457;-69
2020/12/27 05:17:31;;;;;;;1.20;1.10;;;;;;;3.04;72.17;98439.16;5106406;28;20546;-69
2020/12/27 05:19:57;;;;;;;1.00;1.00;;;;;;;3.06;71.65;98430.13;5139828;27;20443;-70
2020/12/27 05:22:24;;;;;;;1.40;1.20;;;;;;;3.06;71.84;98424.03;5125109;28;20473;-69
2020/12/27 05:24:51;;;;;;;1.30;1.20;;;;;;;3.12;71.54;98421.66;5127190;27;20454;-69
2020/12/27 05:27:17;;;;;;;1.20;1.10;;;;;;;3.06;72.10;98408.19;5125566;27;20474;-70
2020/12/27 05:29:44;;;;;;;1.77;1.20;;;;;;;3.11;72.11;98405.97;5148153;27;20429;-69
2020/12/27 05:32:11;;;;;;;1.20;1.10;;;;;;;3.17;71.48;98400.13;5146763;27;20509;-69
2020/12/27 05:34:37;;;;;;;1.13;1.03;;;;;;;3.23;71.27;98389.00;5141882;27;20499;-68
2020/12/27 05:37:07;;;;;;;0.87;0.87;;;;;;;3.31;70.75;98375.91;5126566;27;21002;-70
2020/12/27 05:39:34;;;;;;;1.70;0.87;;;;;;;3.32;71.14;98379.41;5107156;28;20427;-69
2020/12/27 05:42:01;;;;;;;1.13;0.87;;;;;;;3.35;70.57;98372.03;5127465;27;20492;-69
2020/12/27 05:44:27;;;;;;;1.50;0.80;;;;;;;3.32;70.89;98372.31;5147501;27;20500;-69
2020/12/27 05:46:55;;;;;;;1.23;1.10;;;;;;;3.36;70.87;98349.91;5144794;27;20469;-69
2020/12/27 05:49:22;;;;;;;1.47;1.20;;;;;;;3.41;70.42;98333.66;5145436;27;20426;-69
2020/12/27 05:51:51;;;;;;;1.40;1.20;;;;;;;3.44;70.27;98345.72;5127902;27;20506;-69
2020/12/27 05:54:27;;;;;;;1.17;1.10;;;;;;;3.39;71.06;98330.31;5126198;28;20801;-69
2020/12/27 05:56:57;;;;;;;1.23;1.13;;;;;;;3.42;71.07;98313.34;5136764;27;20479;-69
2020/12/27 05:59:27;;;;;;;1.00;1.00;;;;;;;3.42;70.91;98314.19;5146975;27;20436;-69
2020/12/27 06:01:55;;;;;;;1.03;0.97;;;;;;;3.51;70.43;98288.72;5143987;27;20489;-69
2020/12/27 06:04:48;;;;;;;2.10;1.37;;;;;;;3.55;70.24;98303.31;5136471;27;21148;-69
2020/12/27 06:07:22;;;;;;;2.00;1.73;;;;;;;3.54;70.27;98280.47;5126276;27;20509;-69
2020/12/27 06:09:54;;;;;;;1.43;1.23;;;;;;;3.48;70.96;98273.97;5127683;27;20442;-68
2020/12/27 06:12:22;;;;;;;1.30;1.10;;;;;;;3.53;70.29;98263.81;5144286;27;20488;-69
2020/12/27 06:15:07;;;;;;;3.17;1.33;;;;;;;3.59;70.43;98262.38;5127232;27;20450;-70
2020/12/27 06:18:06;;;;;;;1.27;1.17;;;;;;;3.57;71.08;98267.00;5146226;27;20449;-69
2020/12/27 06:20:35;;;;;;;1.40;1.07;;;;;;;3.57;70.84;98241.41;5116262;28;21003;-69
2020/12/27 06:23:01;;;;;;;1.60;1.10;;;;;;;3.63;70.70;98250.56;5127053;27;20486;-68
2020/12/27 06:25:29;;;;;;;2.93;0.70;;;;;;;3.64;70.55;98230.25;5144983;27;20453;-69
2020/12/27 06:27:55;;;;;;;1.10;1.00;;;;;;;3.66;70.74;98220.38;5145742;27;20446;-69
2020/12/27 06:30:23;;;;;;;1.20;1.10;;;;;;;3.69;70.25;98210.34;5145330;27;20453;-69
2020/12/27 06:32:54;;;;;;;2.60;0.77;;;;;;;3.66;70.51;98207.97;5146907;27;20453;-69
2020/12/27 06:35:28;;;;;;;1.20;1.10;;;;;;;3.70;70.81;98212.00;5130628;27;20458;-68
2020/12/27 06:37:56;;;;;;;1.10;1.00;;;;;;;3.73;70.47;98209.06;5126247;28;20529;-69
2020/12/27 06:40:22;;;;;;;2.17;1.20;;;;;;;3.73;70.67;98184.44;5144020;27;20583;-69
2020/12/27 06:42:48;;;;;;;2.30;0.90;;;;;;;3.79;70.29;98177.75;5145219;27;20442;-69
2020/12/27 06:45:28;;;;;;;1.67;0.87;;;;;;;3.79;70.28;98161.88;5143996;27;20461;-69
2020/12/27 06:47:56;;;;;;;1.13;1.00;;;;;;;3.76;70.33;98184.97;5146038;27;20449;-69
2020/12/27 06:50:23;;;;;;;0.90;0.80;;;;;;;3.80;70.59;98160.91;5133646;27;20460;-68
2020/12/27 06:52:50;;;;;;;3.00;1.10;;;;;;;3.81;69.94;98150.19;5126570;27;20458;-69
2020/12/27 06:55:36;;;;;;;0.90;0.90;;;;;;;3.84;69.79;98131.38;5124148;28;20477;-69
2020/12/27 06:58:24;;;;;;;0.83;0.83;;;;;;;3.84;69.67;98138.50;5134612;27;20479;-70
2020/12/27 07:01:09;;;;;;;1.40;1.17;;;;;;;3.86;69.53;98147.09;5125551;27;20530;-69
2020/12/27 07:03:35;;;;;;;1.10;0.90;;;;;;;3.82;69.64;98138.63;5125795;28;20442;-70
2020/12/27 07:06:17;;;;;;;1.20;1.10;;;;;;;3.84;69.82;98133.19;5124466;27;20988;-70
2020/12/27 07:08:44;;;;;;;2.10;1.03;;;;;;;3.84;69.94;98139.31;5126143;27;20426;-69
2020/12/27 07:11:15;;;;;;;0.87;0.83;;;;;;;3.80;70.37;98132.66;5125419;27;20473;-69
2020/12/27 07:13:41;;;;;;;1.10;0.93;;;;;;;3.77;70.03;98112.66;5121394;28;20473;-69
2020/12/27 07:16:11;;;;;;;6.93;1.10;;;;;;;3.77;70.53;98104.72;5121009;28;20490;-69
2020/12/27 07:18:37;;;;;;;1.30;1.03;;;;;;;3.77;70.21;98102.06;5122956;28;20450;-69
2020/12/27 07:21:04;;;;;;;1.50;1.00;;;;;;;3.75;70.42;98098.75;5120452;28;20471;-69
2020/12/27 07:23:31;;;;;;;1.10;1.00;;;;;;;3.75;70.28;98090.81;5121041;28;20446;-70
2020/12/27 07:25:58;;;;;;;2.80;0.87;;;;;;;3.77;70.58;98067.72;5120835;27;20489;-69
2020/12/27 07:28:26;;;;;;;1.13;1.07;;;;;;;3.71;70.40;98067.47;5122076;28;20458;-69
2020/12/27 07:30:56;;;;;;;0.90;0.90;;;;;;;3.69;70.94;98053.59;5119936;28;20470;-68
2020/12/27 07:33:28;;;;;;;2.97;0.90;;;;;;;3.68;70.69;98058.06;5122377;28;20760;-68
2020/12/27 07:35:59;;;;;;;1.03;0.80;;;;;;;3.67;70.88;98037.06;5119176;28;20478;-69
2020/12/27 07:38:49;;;;;;;3.50;0.93;;;;;;;3.70;70.53;98016.44;5122218;28;20547;-68
2020/12/27 07:41:20;;;;;;;1.67;1.10;;;;;;;3.71;70.58;98038.41;5120322;28;20478;-68
2020/12/27 07:43:47;;;;;;;2.20;0.90;;;;;;;3.71;70.99;98038.41;5121877;28;20450;-68
2020/12/27 07:46:14;;;;;;;1.60;1.50;;;;;;;3.67;70.73;98015.94;5120059;28;20474;-69
2020/12/27 07:48:41;;;;;;;1.30;1.10;;;;;;;3.66;71.10;97988.66;5122115;28;20434;-69
2020/12/27 07:51:11;;;;;;;2.50;1.30;;;;;;;3.66;70.87;97996.56;5119784;28;20480;-69
2020/12/27 07:53:37;;;;;;;1.07;0.97;;;;;;;3.67;70.59;97986.84;5121150;28;20446;-70
2020/12/27 07:56:03;;;;;;;2.60;1.30;;;;;;;3.64;70.71;97977.41;5120021;28;21267;-69
2020/12/27 07:58:29;;;;;;;1.10;1.00;;;;;;;3.64;71.19;97931.66;5120676;28;20450;-69
2020/12/27 08:00:56;;;;;;;1.03;1.00;;;;;;;3.63;71.20;97964.34;5119641;28;20482;-68
2020/12/27 08:03:22;;;;;;;2.30;0.90;;;;;;;3.66;70.95;97964.88;5121760;28;20894;-69
2020/12/27 08:05:49;;;;;;;1.20;1.10;;;;;;;3.66;70.49;97951.66;5117571;28;20470;-69
2020/12/27 08:08:15;;;;;;;1.53;1.33;;;;;;;3.61;71.04;97953.09;5121905;28;20845;-69
2020/12/27 08:10:41;;;;;;;1.27;1.00;;;;;;;3.66;70.70;97951.66;5124985;28;20497;-68
2020/12/27 08:13:08;;;;;;;2.13;1.20;;;;;;;3.66;71.09;97943.72;5116656;28;20476;-69
2020/12/27 08:15:37;;;;;;;1.30;1.13;;;;;;;3.66;70.77;97927.88;5106668;28;20924;-69
2020/12/27 08:18:06;;;;;;;3.30;1.80;;;;;;;3.71;70.22;97940.63;5107499;28;20431;-69
2020/12/27 08:20:34;;;;;;;1.30;1.20;;;;;;;3.68;70.87;97936.50;5106160;28;20475;-68
2020/12/27 08:23:07;;;;;;;2.00;1.43;;;;;;;3.69;70.71;97918.81;5107655;28;20438;-69
2020/12/27 08:25:35;;;;;;;0.90;0.90;;;;;;;3.73;70.38;97923.66;5106922;28;20467;-69
2020/12/27 08:28:04;;;;;;;1.20;1.10;;;;;;;3.74;70.47;97922.66;5106498;28;20454;-68
2020/12/27 08:30:31;;;;;;;1.70;1.07;;;;;;;3.77;70.19;97910.97;5107030;28;20462;-68
2020/12/27 08:33:06;;;;;;;1.13;1.03;;;;;;;3.77;70.73;97910.97;5107336;28;20454;-69
2020/12/27 08:35:32;;;;;;;2.60;1.00;;;;;;;3.80;70.43;97899.25;5105685;28;21000;-69
2020/12/27 08:38:10;;;;;;;1.70;1.00;;;;;;;3.77;70.34;97888.00;5107698;28;20490;-69
2020/12/27 08:40:40;;;;;;;1.10;1.00;;;;;;;3.77;70.81;97879.25;5106336;28;20478;-69
2020/12/27 08:43:09;;;;;;;1.37;1.20;;;;;;;3.75;70.95;97866.19;5106740;28;20447;-69
2020/12/27 08:45:37;;;;;;;1.20;1.10;;;;;;;3.76;70.42;97853.78;5106457;28;20516;-69
2020/12/27 08:48:10;;;;;;;1.47;1.23;;;;;;;3.81;70.58;97850.69;5107029;28;20450;-68
2020/12/27 08:50:40;;;;;;;1.50;1.20;;;;;;;3.82;70.35;97844.41;5105551;28;20463;-71
2020/12/27 08:53:08;;;;;;;1.33;1.17;;;;;;;3.81;70.32;97842.75;5105949;28;20467;-69
2020/12/27 08:55:35;;;;;;;2.10;1.10;;;;;;;3.84;70.17;97831.88;5103077;28;20474;-69
2020/12/27 08:58:01;;;;;;;1.83;1.47;;;;;;;3.85;69.89;97830.88;5112259;28;20845;-69
2020/12/27 09:00:31;;;;;;;1.30;1.20;;;;;;;3.83;70.00;97820.47;5103446;28;20984;-69
2020/12/27 09:03:00;;;;;;;1.67;1.20;;;;;;;3.81;69.87;97801.28;5105358;28;20466;-71
2020/12/27 09:05:28;;;;;;;1.20;1.10;;;;;;;3.82;69.75;97808.25;5104007;28;20478;-67
2020/12/27 09:07:55;;;;;;;1.30;1.20;;;;;;;3.82;69.97;97783.63;5105110;28;20435;-68
2020/12/27 09:10:22;;;;;;;1.47;1.37;;;;;;;3.81;70.22;97793.38;5104063;28;20451;-68
2020/12/27 09:13:01;;;;;;;1.53;1.43;;;;;;;3.85;70.42;97793.88;5111789;28;20492;-68
2020/12/27 09:15:29;;;;;;;1.47;1.17;;;;;;;3.89;69.90;97803.13;5121275;28;20469;-68
2020/12/27 09:17:56;;;;;;;1.30;1.10;;;;;;;3.86;70.41;97811.41;5117912;28;20438;-68
2020/12/27 09:20:23;;;;;;;1.10;1.00;;;;;;;3.87;70.39;97781.31;5103977;28;20447;-68
2020/12/27 09:22:50;;;;;;;1.20;1.10;;;;;;;3.89;69.92;97779.34;5104627;28;20443;-68
2020/12/27 09:25:18;;;;;;;1.13;1.03;;;;;;;3.91;70.26;97772.13;5101607;28;20443;-67
2020/12/27 09:27:44;;;;;;;1.60;1.13;;;;;;;3.87;70.07;97776.88;5099103;28;20474;-70
2020/12/27 09:30:14;;;;;;;1.20;1.10;;;;;;;3.86;70.76;97784.97;5103166;28;20470;-70
2020/12/27 09:32:40;;;;;;;1.23;1.10;;;;;;;3.91;70.32;97770.28;5104343;28;20455;-70
2020/12/27 09:35:06;;;;;;;0.93;0.80;;;;;;;3.92;70.64;97765.81;5105027;28;20473;-70
2020/12/27 09:37:33;;;;;;;1.00;1.00;;;;;;;3.96;70.24;97773.28;5103007;28;20439;-70
2020/12/27 09:40:03;;;;;;;2.17;1.43;;;;;;;3.93;70.54;97768.31;5115501;28;20515;-68
2020/12/27 09:42:32;;;;;;;1.00;1.00;;;;;;;3.97;70.63;97742.38;5124089;28;20474;-68
2020/12/27 09:44:59;;;;;;;1.20;1.07;;;;;;;3.98;70.37;97741.41;5124599;28;20446;-69
2020/12/27 09:47:27;;;;;;;1.57;1.37;;;;;;;3.96;70.39;97754.78;5123903;28;20502;-69
2020/12/27 09:50:01;;;;;;;1.30;1.20;;;;;;;3.93;70.31;97759.56;5116208;28;20442;-69
2020/12/27 09:52:27;;;;;;;2.13;1.63;;;;;;;3.89;70.49;97729.97;5103284;28;20466;-67
2020/12/27 09:54:53;;;;;;;1.30;1.20;;;;;;;3.86;70.37;97719.72;5104666;28;20450;-67
2020/12/27 09:57:24;;;;;;;1.53;1.30;;;;;;;3.89;70.42;97700.91;5102738;28;20491;-67
2020/12/27 09:59:52;;;;;;;1.87;1.30;;;;;;;3.85;70.91;97690.81;5112203;28;20594;-70
2020/12/27 10:02:20;;;;;;;1.50;1.40;;;;;;;3.88;70.85;97680.72;5122256;28;20490;-69
2020/12/27 10:04:47;;;;;;;1.43;1.33;;;;;;;3.84;71.06;97689.16;5118625;28;20945;-70
2020/12/27 10:07:13;;;;;;;1.10;1.00;;;;;;;3.86;71.09;97666.84;5102189;28;20475;-70
2020/12/27 10:09:39;;;;;;;1.50;1.40;;;;;;;3.85;71.56;97682.88;5104635;28;20442;-69
2020/12/27 10:12:05;;;;;;;2.07;1.57;;;;;;;3.83;70.97;97687.50;5103171;27;20470;-69
2020/12/27 10:14:33;;;;;;;2.20;1.27;;;;;;;3.88;71.22;97688.66;5132519;27;21005;-68
2020/12/27 10:17:01;;;;;;;1.23;1.00;;;;;;;3.92;70.95;97689.16;5116886;27;20470;-68
2020/12/27 10:19:28;;;;;;;1.17;1.10;;;;;;;3.95;70.87;97662.41;5128991;27;20510;-71
2020/12/27 10:21:54;;;;;;;1.30;1.20;;;;;;;3.99;70.22;97671.66;5128616;27;20481;-69
2020/12/27 10:24:23;;;;;;;2.10;1.47;;;;;;;3.96;70.84;97693.97;5132903;27;20454;-67
2020/12/27 10:26:50;;;;;;;2.20;1.40;;;;;;;3.99;70.60;97636.47;5130788;27;20484;-67
2020/12/27 10:29:16;;;;;;;2.70;1.60;;;;;;;4.01;70.58;97653.00;5131533;27;20467;-69
2020/12/27 10:31:43;;;;;;;3.53;1.30;;;;;;;4.04;70.70;97637.63;5131850;27;20461;-67
2020/12/27 10:34:09;;;;;;;1.60;1.50;;;;;;;4.01;70.52;97616.84;5131028;27;20438;-66
2020/12/27 10:36:36;;;;;;;1.53;1.43;;;;;;;4.07;70.17;97610.88;5120095;27;20531;-66
2020/12/27 10:39:02;;;;;;;1.20;1.10;;;;;;;4.01;70.28;97608.06;5134660;27;20901;-68
2020/12/27 10:41:28;;;;;;;1.73;1.40;;;;;;;3.96;70.38;97596.16;5129340;27;21055;-68
2020/12/27 10:43:54;;;;;;;1.97;1.30;;;;;;;3.92;70.46;97588.72;5132920;27;20568;-67
2020/12/27 10:46:21;;;;;;;1.23;1.13;;;;;;;3.96;70.48;97566.28;5130306;27;20473;-68
2020/12/27 10:48:48;;;;;;;1.47;1.37;;;;;;;3.96;70.21;97561.00;5132709;27;20633;-68
2020/12/27 10:51:14;;;;;;;1.23;1.13;;;;;;;3.85;70.74;97566.59;5126566;27;20462;-67
2020/12/27 10:53:40;;;;;;;1.43;1.33;;;;;;;3.84;70.56;97549.91;5134527;27;20430;-69
2020/12/27 10:56:07;;;;;;;1.77;1.23;;;;;;;3.81;70.78;97525.63;5128033;27;20481;-69
2020/12/27 10:58:33;;;;;;;1.60;1.30;;;;;;;3.81;70.77;97530.91;5132752;27;20440;-68
2020/12/27 11:00:59;;;;;;;1.70;1.60;;;;;;;3.79;71.17;97532.91;5129634;27;20474;-68
2020/12/27 11:03:26;;;;;;;1.57;1.47;;;;;;;3.69;71.58;97539.16;5134084;27;20441;-68
2020/12/27 11:05:53;;;;;;;1.70;1.60;;;;;;;3.58;71.07;97497.22;5127885;27;20489;-68
2020/12/27 11:08:19;;;;;;;1.60;1.50;;;;;;;3.51;71.50;97510.25;5130455;27;20448;-70
2020/12/27 11:10:46;;;;;;;1.90;1.80;;;;;;;3.41;72.17;97496.38;5129257;27;20465;-69
2020/12/27 11:13:12;;;;;;;2.00;1.80;;;;;;;3.34;72.33;97498.81;5130756;27;20485;-67
2020/12/27 11:15:39;;;;;;;2.67;2.17;;;;;;;3.28;73.04;97496.00;5133231;27;20472;-67
2020/12/27 11:18:05;;;;;;;2.10;1.87;;;;;;;3.16;73.06;97491.03;5134601;27;20437;-67
2020/12/27 11:20:31;;;;;;;2.97;2.33;;;;;;;3.06;74.23;97482.44;5131450;27;21015;-67
2020/12/27 11:22:59;;;;;;;3.30;2.50;;;;;;;2.92;74.93;97472.50;5129172;27;20442;-67
2020/12/27 11:25:26;;;;;;;3.13;2.83;;;;;;;2.74;75.89;97456.78;5122017;28;20466;-67
2020/12/27 11:27:52;;;;;;;2.83;2.60;;;;;;;2.68;76.17;97449.50;5126771;28;20457;-67
2020/12/27 11:30:19;;;;;;;3.03;2.50;;;;;;;2.56;76.47;97433.13;5132609;27;20429;-66
2020/12/27 11:32:45;;;;;;;3.10;2.80;;;;;;;2.41;77.28;97433.75;5131977;28;20453;-67
2020/12/27 11:35:12;;;;;;;2.50;2.30;;;;;;;2.29;78.12;97434.16;5130061;27;20509;-67
2020/12/27 11:37:38;;;;;;;2.37;2.03;;;;;;;2.23;78.23;97411.91;5131674;28;20433;-67
2020/12/27 11:40:06;;;;;;;3.30;2.33;;;;;;;2.20;78.23;97399.03;5129503;27;20441;-67
2020/12/27 11:42:32;;;;;;;3.20;3.00;;;;;;;2.01;79.11;97405.38;5126749;28;20478;-67
2020/12/27 11:44:58;;;;;;;2.30;2.10;;;;;;;1.92;78.88;97393.16;5131274;27;21142;-67